Time;durP1;ratioP1;P1;durP2;ratioP2;P2;SDS_P1;SDS_P2;PMS_P1;PMS_P2;Temp;Humidity;BMP_temperature;BMP_pressure;BME280_temperature;BME280_humidity;BME280_pressure;Samples;Min_cycle;Max_cycle;Signal;HPM_P1;HPM_P2
2021/04/02 00:02:47;;;;;;;39.08;25.15;;;14.20;65.20;;;;;;6308078;28;20055;-78
2021/04/02 00:05:49;;;;;;;34.38;21.98;;;14.20;65.20;;;;;;6307417;28;20056;-78
2021/04/02 00:08:50;;;;;;;36.65;24.08;;;14.10;65.50;;;;;;6306997;28;20033;-78
2021/04/02 00:11:53;;;;;;;38.22;24.17;;;14.00;65.60;;;;;;6307045;28;20049;-78
2021/04/02 00:14:54;;;;;;;32.58;21.80;;;14.00;65.80;;;;;;6307373;28;20055;-78
2021/04/02 00:17:55;;;;;;;28.33;19.58;;;13.90;65.80;;;;;;6305897;28;20033;-78
2021/04/02 00:20:58;;;;;;;30.88;20.65;;;13.90;65.80;;;;;;6299166;28;20068;-78
2021/04/02 00:23:59;;;;;;;26.67;19.02;;;13.90;66.00;;;;;;6283997;28;20056;-78
2021/04/02 00:27:02;;;;;;;28.30;18.15;;;13.80;66.20;;;;;;6283770;28;20056;-78
2021/04/02 00:30:10;;;;;;;30.15;19.35;;;13.80;66.40;;;;;;6283501;28;20684;-78
2021/04/02 00:33:13;;;;;;;26.73;18.10;;;13.70;66.60;;;;;;6285425;28;20080;-78
2021/04/02 00:36:14;;;;;;;21.15;14.45;;;13.60;66.70;;;;;;6283501;28;20064;-79
2021/04/02 00:39:15;;;;;;;25.40;15.45;;;13.60;66.90;;;;;;6281669;28;20536;-78
2021/04/02 00:42:17;;;;;;;21.55;13.70;;;13.60;66.80;;;;;;6283952;28;20154;-78
2021/04/02 00:45:20;;;;;;;17.13;12.25;;;13.50;66.80;;;;;;6282465;28;20072;-79
2021/04/02 00:48:21;;;;;;;15.80;11.18;;;13.50;66.60;;;;;;6282306;28;20060;-78
2021/04/02 00:51:25;;;;;;;19.25;11.85;;;13.50;66.70;;;;;;6284427;28;20055;-78
2021/04/02 00:54:26;;;;;;;12.98;9.52;;;13.40;67.20;;;;;;6283084;28;20625;-78
2021/04/02 00:57:28;;;;;;;15.35;8.90;;;13.30;66.70;;;;;;6283028;28;20080;-78
2021/04/02 01:00:31;;;;;;;11.07;8.73;;;13.30;66.70;;;;;;6278828;28;20104;-78
2021/04/02 01:03:33;;;;;;;18.20;10.48;;;13.30;67.40;;;;;;6273892;28;20052;-77
2021/04/02 01:06:35;;;;;;;12.48;9.13;;;13.10;67.00;;;;;;6274129;28;20137;-77
2021/04/02 01:09:36;;;;;;;11.93;7.22;;;13.10;67.10;;;;;;6273310;28;20371;-77
2021/04/02 01:12:38;;;;;;;14.00;8.07;;;13.00;66.90;;;;;;6273337;28;20535;-77
2021/04/02 01:15:42;;;;;;;10.20;7.35;;;13.00;66.80;;;;;;6273393;28;20471;-77
2021/04/02 01:18:48;;;;;;;8.77;6.95;;;12.90;66.50;;;;;;6273727;28;20135;-78
2021/04/02 01:21:54;;;;;;;11.43;6.70;;;12.80;66.40;;;;;;6273068;28;20630;-77
2021/04/02 01:25:07;;;;;;;11.02;6.75;;;12.80;66.70;;;;;;6274383;28;20055;-78
2021/04/02 01:28:28;;;;;;;9.30;6.50;;;12.80;66.50;;;;;;6273307;28;20056;-78
2021/04/02 01:31:31;;;;;;;9.60;6.28;;;12.70;66.60;;;;;;6273100;28;20047;-78
2021/04/02 01:34:36;;;;;;;8.82;5.55;;;12.60;66.80;;;;;;6274647;28;20072;-77
2021/04/02 01:37:41;;;;;;;5.57;5.03;;;12.60;66.90;;;;;;6273140;28;20120;-77
2021/04/02 01:40:46;;;;;;;9.75;5.82;;;12.50;66.70;;;;;;6273499;28;20146;-78
2021/04/02 01:43:52;;;;;;;10.10;6.15;;;12.40;66.80;;;;;;6273141;28;20114;-77
2021/04/02 01:46:55;;;;;;;10.05;6.15;;;12.30;66.60;;;;;;6273835;28;20049;-78
2021/04/02 01:49:59;;;;;;;7.43;5.47;;;12.30;66.70;;;;;;6274841;28;20113;-78
2021/04/02 01:53:01;;;;;;;9.68;5.40;;;12.20;67.10;;;;;;6275400;28;20084;-78
2021/04/02 01:56:04;;;;;;;7.00;4.82;;;12.10;67.20;;;;;;6278198;28;20082;-78
2021/04/02 01:59:07;;;;;;;11.23;5.60;;;12.00;67.20;;;;;;6277223;28;20045;-79
2021/04/02 02:02:10;;;;;;;6.57;4.53;;;12.00;67.00;;;;;;6276831;28;20128;-78
2021/04/02 02:05:13;;;;;;;18.38;7.95;;;11.90;66.70;;;;;;6274660;28;20128;-78
2021/04/02 02:08:15;;;;;;;9.40;5.03;;;11.80;66.50;;;;;;6275536;28;20072;-78
2021/04/02 02:11:18;;;;;;;6.15;4.32;;;11.80;66.40;;;;;;6277081;28;20080;-78
2021/04/02 02:14:21;;;;;;;10.90;4.50;;;11.70;66.20;;;;;;6275842;28;20135;-77
2021/04/02 02:17:24;;;;;;;5.78;4.00;;;11.60;66.00;;;;;;6275536;28;20103;-78
2021/04/02 02:20:28;;;;;;;9.00;5.30;;;11.60;66.10;;;;;;6275417;28;20124;-77
2021/04/02 02:23:30;;;;;;;5.20;4.00;;;11.40;66.20;;;;;;6276320;28;20104;-78
2021/04/02 02:26:31;;;;;;;10.27;5.25;;;11.30;66.30;;;;;;6277517;28;20053;-78
2021/04/02 02:29:33;;;;;;;6.72;4.82;;;11.30;65.60;;;;;;6276495;28;20544;-78
2021/04/02 02:32:36;;;;;;;9.27;4.53;;;11.10;65.10;;;;;;6277812;28;20045;-78
2021/04/02 02:35:37;;;;;;;10.23;4.38;;;11.10;64.50;;;;;;6279091;28;20049;-78
2021/04/02 02:38:42;;;;;;;5.93;3.60;;;11.00;63.90;;;;;;6279859;28;20091;-78
2021/04/02 02:41:44;;;;;;;4.80;3.35;;;10.90;63.70;;;;;;6280944;28;20128;-78
2021/04/02 02:44:47;;;;;;;7.97;4.05;;;10.80;63.30;;;;;;6281008;28;20068;-78
2021/04/02 02:47:49;;;;;;;6.20;3.70;;;10.70;63.50;;;;;;6281812;28;20049;-77
2021/04/02 02:50:54;;;;;;;7.95;3.53;;;10.60;63.70;;;;;;6275963;28;20084;-78
2021/04/02 02:53:59;;;;;;;7.75;3.78;;;10.50;63.20;;;;;;6273458;28;20455;-78
2021/04/02 02:57:02;;;;;;;15.02;5.38;;;10.40;63.30;;;;;;6275823;28;20106;-77
2021/04/02 03:00:09;;;;;;;11.13;5.68;;;10.30;63.10;;;;;;6278599;28;20088;-77
2021/04/02 03:03:15;;;;;;;12.15;5.00;;;10.30;63.10;;;;;;6277766;28;20076;-78
2021/04/02 03:06:17;;;;;;;13.07;3.67;;;10.20;63.20;;;;;;6278853;28;20445;-77
2021/04/02 03:09:21;;;;;;;9.95;4.43;;;10.10;62.80;;;;;;6296240;28;20061;-79
2021/04/02 03:12:24;;;;;;;5.35;3.85;;;10.00;62.70;;;;;;6292089;28;20126;-78
2021/04/02 03:15:28;;;;;;;5.53;3.97;;;9.90;63.20;;;;;;6288225;28;20049;-77
2021/04/02 03:18:31;;;;;;;7.75;3.58;;;9.80;62.50;;;;;;6285017;28;20117;-79
2021/04/02 03:21:32;;;;;;;13.25;3.65;;;9.70;62.10;;;;;;6280870;28;20064;-77
2021/04/02 03:24:34;;;;;;;7.15;3.05;;;9.70;62.30;;;;;;6276223;28;20577;-77
2021/04/02 03:27:38;;;;;;;10.68;4.82;;;9.60;62.20;;;;;;6276043;28;20052;-77
2021/04/02 03:30:40;;;;;;;6.20;3.90;;;9.50;62.20;;;;;;6276442;28;20045;-77
2021/04/02 03:33:47;;;;;;;11.95;4.30;;;9.50;62.40;;;;;;6275706;28;20124;-77
2021/04/02 03:36:51;;;;;;;7.38;3.72;;;9.40;62.30;;;;;;6276699;28;20132;-77
2021/04/02 03:39:54;;;;;;;6.32;4.38;;;9.40;62.60;;;;;;6276188;28;20049;-77
2021/04/02 03:42:59;;;;;;;11.68;4.90;;;9.30;62.80;;;;;;6277148;28;20402;-78
2021/04/02 03:46:02;;;;;;;7.97;4.22;;;9.30;63.30;;;;;;6276589;28;20179;-78
2021/04/02 03:49:07;;;;;;;6.00;4.10;;;9.20;63.30;;;;;;6276370;28;20074;-78
2021/04/02 03:52:12;;;;;;;7.63;5.18;;;9.20;63.50;;;;;;6277259;28;20049;-78
2021/04/02 03:55:16;;;;;;;5.18;3.47;;;9.00;63.90;;;;;;6276363;28;20775;-78
2021/04/02 03:58:20;;;;;;;8.00;3.83;;;8.90;64.10;;;;;;6276190;28;20138;-77
2021/04/02 04:01:24;;;;;;;13.82;5.57;;;8.80;64.60;;;;;;6275980;28;20471;-78
2021/04/02 04:04:29;;;;;;;9.52;4.28;;;8.80;64.70;;;;;;6275911;28;20059;-77
2021/04/02 04:07:32;;;;;;;7.05;3.95;;;8.70;64.80;;;;;;6274712;28;20045;-77
2021/04/02 04:10:35;;;;;;;12.50;5.63;;;8.60;65.20;;;;;;6275357;28;20137;-77
2021/04/02 04:13:38;;;;;;;6.90;5.32;;;8.50;65.30;;;;;;6276098;28;20055;-77
2021/04/02 04:16:42;;;;;;;6.50;4.22;;;8.50;65.50;;;;;;6275109;28;20472;-77
2021/04/02 04:19:47;;;;;;;7.60;4.22;;;8.50;65.70;;;;;;6274874;28;20098;-77
2021/04/02 04:22:49;;;;;;;9.88;4.35;;;8.40;66.00;;;;;;6275632;28;20143;-77
2021/04/02 04:25:54;;;;;;;6.03;5.38;;;8.40;66.30;;;;;;6274825;28;20068;-77
2021/04/02 04:28:57;;;;;;;14.05;5.63;;;8.30;66.50;;;;;;6274496;28;20049;-77
2021/04/02 04:32:00;;;;;;;10.95;6.10;;;8.30;66.70;;;;;;6275031;28;20128;-77
2021/04/02 04:35:03;;;;;;;10.10;5.53;;;8.20;67.00;;;;;;6275426;28;20136;-77
2021/04/02 04:38:06;;;;;;;8.95;5.55;;;8.20;67.10;;;;;;6274026;28;20087;-77
2021/04/02 04:41:09;;;;;;;9.95;5.60;;;8.10;67.20;;;;;;6274099;28;20041;-77
2021/04/02 04:44:12;;;;;;;7.80;4.90;;;8.10;67.50;;;;;;6274148;28;20055;-77
2021/04/02 04:47:13;;;;;;;8.73;5.20;;;8.00;67.80;;;;;;6275062;28;20140;-77
2021/04/02 04:50:16;;;;;;;7.40;5.63;;;8.00;68.10;;;;;;6274748;28;20049;-78
2021/04/02 04:53:21;;;;;;;9.68;5.78;;;7.90;68.20;;;;;;6274167;28;20044;-77
2021/04/02 04:56:26;;;;;;;12.52;5.03;;;8.00;68.50;;;;;;6273918;28;20566;-78
2021/04/02 04:59:31;;;;;;;10.80;7.63;;;7.80;68.80;;;;;;6274219;28;20045;-77
2021/04/02 05:02:33;;;;;;;8.30;5.35;;;7.80;69.20;;;;;;6275406;28;20041;-77
2021/04/02 05:05:38;;;;;;;7.32;5.78;;;7.80;69.50;;;;;;6273818;28;20049;-78
2021/04/02 05:08:41;;;;;;;10.48;5.63;;;7.70;69.60;;;;;;6274101;28;20065;-77
2021/04/02 05:11:44;;;;;;;6.07;4.38;;;7.60;70.00;;;;;;6273975;28;20195;-77
2021/04/02 05:14:47;;;;;;;7.75;5.55;;;7.60;70.30;;;;;;6274183;28;20156;-78
2021/04/02 05:17:50;;;;;;;8.68;5.40;;;7.50;70.70;;;;;;6273378;28;20044;-77
2021/04/02 05:20:53;;;;;;;9.93;6.38;;;7.50;71.00;;;;;;6273474;28;20068;-78
2021/04/02 05:23:55;;;;;;;7.80;6.90;;;7.50;71.10;;;;;;6274777;28;20040;-77
2021/04/02 05:26:56;;;;;;;10.25;7.40;;;7.40;71.60;;;;;;6275298;28;20131;-77
2021/04/02 05:29:58;;;;;;;11.95;7.97;;;7.40;72.20;;;;;;6274558;28;20118;-78
2021/04/02 05:33:00;;;;;;;9.65;7.30;;;7.40;72.40;;;;;;6277761;28;20049;-78
2021/04/02 05:36:02;;;;;;;10.02;7.45;;;7.50;72.40;;;;;;6276629;28;20128;-78
2021/04/02 05:39:03;;;;;;;14.95;7.18;;;7.60;72.70;;;;;;6276712;28;20143;-78
2021/04/02 05:42:06;;;;;;;10.95;7.60;;;7.60;72.50;;;;;;6275335;28;20475;-78
2021/04/02 05:45:10;;;;;;;9.48;8.52;;;7.80;72.30;;;;;;6274034;28;20495;-78
2021/04/02 05:48:14;;;;;;;9.85;6.82;;;7.90;72.20;;;;;;6275149;28;20051;-77
2021/04/02 05:51:17;;;;;;;14.70;7.72;;;8.00;72.10;;;;;;6275310;28;20128;-78
2021/04/02 05:54:27;;;;;;;16.63;7.30;;;8.10;71.70;;;;;;6277955;28;20052;-77
2021/04/02 05:57:29;;;;;;;12.50;8.75;;;8.20;71.30;;;;;;6275931;28;20131;-78
2021/04/02 06:00:31;;;;;;;11.90;7.35;;;8.40;70.90;;;;;;6276676;28;20710;-78
2021/04/02 06:03:32;;;;;;;10.27;7.45;;;8.60;70.40;;;;;;6273967;28;20056;-78
2021/04/02 06:06:35;;;;;;;13.40;9.25;;;8.80;69.70;;;;;;6271325;28;20049;-77
2021/04/02 06:09:37;;;;;;;13.35;8.43;;;8.80;69.60;;;;;;6274710;28;20073;-78
2021/04/02 06:12:41;;;;;;;11.73;8.02;;;8.90;69.60;;;;;;6274904;28;20065;-78
2021/04/02 06:15:42;;;;;;;13.88;8.77;;;8.80;69.30;;;;;;6275410;28;20071;-78
2021/04/02 06:18:44;;;;;;;13.85;9.55;;;8.90;69.20;;;;;;6277325;28;20088;-78
2021/04/02 06:21:48;;;;;;;11.25;7.68;;;8.80;69.30;;;;;;6268489;28;20132;-78
2021/04/02 06:24:49;;;;;;;9.95;7.93;;;8.90;69.50;;;;;;6250916;28;20137;-78
2021/04/02 06:27:53;;;;;;;13.20;7.35;;;9.00;69.00;;;;;;6251715;28;20049;-79
2021/04/02 06:31:00;;;;;;;11.23;8.10;;;9.00;69.20;;;;;;6250343;28;20175;-79
2021/04/02 06:34:06;;;;;;;10.70;7.60;;;9.20;68.70;;;;;;6254292;28;20111;-78
2021/04/02 06:37:08;;;;;;;10.07;8.52;;;9.40;68.10;;;;;;6252403;28;20049;-78
2021/04/02 06:40:16;;;;;;;13.98;8.15;;;9.50;67.70;;;;;;6249511;28;20478;-79
2021/04/02 06:43:17;;;;;;;15.05;8.70;;;9.70;67.30;;;;;;6249457;28;20049;-78
2021/04/02 06:46:23;;;;;;;10.23;7.55;;;9.70;66.40;;;;;;6249141;28;20088;-78
2021/04/02 06:49:25;;;;;;;12.95;8.48;;;9.90;66.30;;;;;;6247633;28;20128;-78
2021/04/02 06:52:31;;;;;;;14.65;8.93;;;10.00;65.90;;;;;;6248621;28;20109;-78
2021/04/02 06:55:33;;;;;;;11.32;8.10;;;9.90;65.90;;;;;;6251372;28;20070;-79
2021/04/02 06:58:37;;;;;;;13.02;6.70;;;9.80;66.20;;;;;;6251913;28;20053;-78
2021/04/02 07:01:39;;;;;;;11.88;7.32;;;10.00;65.90;;;;;;6249423;28;20136;-78
2021/04/02 07:04:43;;;;;;;11.73;9.07;;;10.20;65.30;;;;;;6252755;28;20126;-79
2021/04/02 07:07:48;;;;;;;10.20;8.18;;;10.50;64.70;;;;;;6253780;28;20066;-79
2021/04/02 07:10:50;;;;;;;11.70;7.70;;;10.70;63.20;;;;;;6254210;28;20053;-79
2021/04/02 07:13:53;;;;;;;10.65;7.55;;;10.60;62.80;;;;;;6252912;28;20140;-77
2021/04/02 07:16:55;;;;;;;9.30;7.32;;;10.60;62.80;;;;;;6250997;28;20046;-78
2021/04/02 07:19:57;;;;;;;11.43;7.40;;;10.60;62.80;;;;;;6250991;28;20128;-78
2021/04/02 07:23:00;;;;;;;10.80;8.10;;;10.80;62.40;;;;;;6252463;28;20136;-79
2021/04/02 07:26:02;;;;;;;9.45;6.35;;;11.10;61.30;;;;;;6252730;28;20077;-78
2021/04/02 07:29:04;;;;;;;13.40;7.30;;;11.30;60.00;;;;;;6250989;28;20073;-78
2021/04/02 07:32:06;;;;;;;9.55;6.95;;;11.20;60.00;;;;;;6251347;28;20083;-78
2021/04/02 07:35:15;;;;;;;9.57;7.65;;;11.40;60.50;;;;;;6252875;28;20133;-78
2021/04/02 07:38:17;;;;;;;10.95;7.00;;;11.80;59.70;;;;;;6253598;28;20593;-79
2021/04/02 07:41:21;;;;;;;9.27;6.93;;;12.20;57.80;;;;;;6256652;28;20077;-80
2021/04/02 07:44:22;;;;;;;10.63;6.88;;;12.10;58.10;;;;;;6255336;28;20103;-77
2021/04/02 07:47:24;;;;;;;9.98;6.95;;;12.30;57.80;;;;;;6251348;28;20151;-78
2021/04/02 07:50:41;;;;;;;8.57;6.20;;;12.80;56.60;;;;;;6251398;28;20053;-78
2021/04/02 07:53:46;;;;;;;19.98;8.88;;;13.00;56.40;;;;;;6251059;28;20048;-77
2021/04/02 07:56:49;;;;;;;6.88;5.90;;;13.30;54.10;;;;;;6251149;28;20049;-78
2021/04/02 07:59:50;;;;;;;11.65;7.32;;;13.20;54.20;;;;;;6250621;28;20572;-77
2021/04/02 08:03:10;;;;;;;8.05;6.55;;;13.00;53.60;;;;;;6251248;28;20050;-78
2021/04/02 08:06:29;;;;;;;10.32;7.78;;;13.00;54.50;;;;;;6250877;28;20092;-77
2021/04/02 08:09:31;;;;;;;9.73;7.22;;;13.20;53.50;;;;;;6250296;28;20529;-77
2021/04/02 08:12:33;;;;;;;9.15;7.70;;;13.20;53.20;;;;;;6251796;28;20470;-76
2021/04/02 08:15:34;;;;;;;9.88;7.10;;;13.10;53.10;;;;;;6250751;28;20102;-77
2021/04/02 08:18:36;;;;;;;12.15;7.43;;;12.70;54.30;;;;;;6250472;28;20128;-78
2021/04/02 08:21:39;;;;;;;9.13;7.22;;;12.70;54.30;;;;;;6250171;28;20046;-77
2021/04/02 08:24:44;;;;;;;12.02;6.35;;;12.70;54.90;;;;;;6253198;28;20057;-78
2021/04/02 08:27:47;;;;;;;8.40;7.55;;;13.00;54.70;;;;;;6250242;28;20111;-77
2021/04/02 08:30:50;;;;;;;8.05;7.13;;;13.40;54.20;;;;;;6250584;28;20136;-77
2021/04/02 08:33:53;;;;;;;13.98;8.32;;;13.90;52.30;;;;;;6249886;28;20126;-77
2021/04/02 08:36:56;;;;;;;8.27;7.13;;;13.60;52.10;;;;;;6249753;28;20060;-78
2021/04/02 08:40:00;;;;;;;8.63;7.72;;;13.20;53.60;;;;;;6249210;28;20123;-77
2021/04/02 08:43:02;;;;;;;11.77;7.93;;;13.10;54.10;;;;;;6249903;28;20443;-77
2021/04/02 08:46:04;;;;;;;10.57;7.35;;;13.40;54.50;;;;;;6249546;28;20176;-77
2021/04/02 08:49:07;;;;;;;12.20;7.10;;;13.50;52.70;;;;;;6249245;28;20076;-77
2021/04/02 08:52:09;;;;;;;8.40;7.38;;;13.40;53.90;;;;;;6256174;28;20505;-78
2021/04/02 08:55:12;;;;;;;9.50;8.13;;;13.40;52.70;;;;;;6257371;28;20129;-77
2021/04/02 08:58:14;;;;;;;9.82;7.15;;;13.30;53.50;;;;;;6249440;28;20140;-77
2021/04/02 09:01:17;;;;;;;8.20;6.13;;;13.50;52.70;;;;;;6250369;28;20411;-78
2021/04/02 09:04:20;;;;;;;8.95;6.82;;;13.80;52.60;;;;;;6255107;28;20533;-77
2021/04/02 09:07:21;;;;;;;10.48;6.82;;;14.30;51.40;;;;;;6249705;28;20059;-77
2021/04/02 09:10:24;;;;;;;9.15;6.82;;;14.60;51.30;;;;;;6249743;28;20136;-77
2021/04/02 09:13:35;;;;;;;9.63;6.57;;;15.10;49.20;;;;;;6249036;28;20045;-77
2021/04/02 09:16:38;;;;;;;7.57;6.75;;;15.80;48.30;;;;;;6249275;28;20128;-78
2021/04/02 09:19:40;;;;;;;9.93;7.55;;;15.80;46.90;;;;;;6248864;28;20128;-77
2021/04/02 09:22:43;;;;;;;9.60;6.97;;;15.30;47.80;;;;;;6249591;28;20131;-77
2021/04/02 09:25:49;;;;;;;9.98;7.05;;;15.40;48.70;;;;;;6249721;28;20578;-77
2021/04/02 09:28:50;;;;;;;8.35;5.63;;;16.00;46.30;;;;;;6248996;28;20052;-77
2021/04/02 09:31:52;;;;;;;12.52;8.10;;;15.40;46.20;;;;;;6248533;28;20503;-77
2021/04/02 09:34:55;;;;;;;6.88;6.15;;;14.70;48.40;;;;;;6249047;28;20085;-78
2021/04/02 09:37:56;;;;;;;9.13;7.22;;;14.80;48.40;;;;;;6249533;28;20128;-77
2021/04/02 09:41:00;;;;;;;8.90;6.55;;;14.60;48.20;;;;;;6249033;28;20128;-77
2021/04/02 09:44:07;;;;;;;7.53;6.80;;;14.40;48.40;;;;;;6250289;28;20107;-77
2021/04/02 09:47:12;;;;;;;10.25;7.10;;;14.60;48.30;;;;;;6252810;28;20053;-77
2021/04/02 09:50:15;;;;;;;8.85;7.60;;;14.90;46.90;;;;;;6248442;28;20057;-77
2021/04/02 09:53:17;;;;;;;9.63;8.38;;;14.50;47.60;;;;;;6249954;28;20046;-78
2021/04/02 09:56:19;;;;;;;7.45;6.65;;;14.70;48.70;;;;;;6248974;28;20049;-77
2021/04/02 09:59:20;;;;;;;8.73;7.15;;;15.80;47.30;;;;;;6248162;28;20049;-78
2021/04/02 10:02:22;;;;;;;8.70;7.22;;;16.50;45.90;;;;;;6260673;28;20092;-78
2021/04/02 10:05:23;;;;;;;9.40;6.88;;;17.00;44.00;;;;;;6258906;28;20049;-78
2021/04/02 10:08:24;;;;;;;8.00;6.60;;;17.20;43.10;;;;;;6250200;28;20501;-77
2021/04/02 10:11:27;;;;;;;10.52;7.82;;;16.90;43.40;;;;;;6248025;28;20511;-76
2021/04/02 10:14:28;;;;;;;7.72;6.90;;;16.60;44.00;;;;;;6249065;28;20179;-77
2021/04/02 10:17:30;;;;;;;10.07;7.28;;;16.40;44.80;;;;;;6247728;28;20479;-77
2021/04/02 10:20:31;;;;;;;8.32;7.43;;;16.40;45.70;;;;;;6247833;28;20045;-77
2021/04/02 10:23:33;;;;;;;8.75;7.75;;;16.80;45.00;;;;;;6247861;28;20080;-76
2021/04/02 10:26:35;;;;;;;11.23;8.02;;;17.00;43.80;;;;;;6248057;28;20053;-77
2021/04/02 10:29:36;;;;;;;7.57;6.55;;;16.70;43.70;;;;;;6247208;28;20629;-77
2021/04/02 10:32:38;;;;;;;7.93;7.13;;;16.50;44.40;;;;;;6247711;28;20072;-77
2021/04/02 10:35:39;;;;;;;9.27;6.32;;;16.90;43.60;;;;;;6247554;28;20052;-77
2021/04/02 10:38:41;;;;;;;10.52;6.72;;;17.20;42.90;;;;;;6247538;28;20077;-77
2021/04/02 10:41:43;;;;;;;10.68;8.43;;;17.70;42.10;;;;;;6247545;28;20462;-77
2021/04/02 10:44:45;;;;;;;7.90;6.78;;;17.90;41.60;;;;;;6247457;28;20072;-77
2021/04/02 10:47:46;;;;;;;6.97;6.25;;;18.10;40.30;;;;;;6248415;28;20046;-79
2021/04/02 10:50:48;;;;;;;8.05;7.25;;;18.00;40.70;;;;;;6252186;28;20089;-77
2021/04/02 10:53:49;;;;;;;10.93;7.47;;;18.20;40.20;;;;;;6251253;28;20128;-77
2021/04/02 10:56:52;;;;;;;9.65;7.50;;;18.30;40.00;;;;;;6246868;28;20528;-78
2021/04/02 10:59:53;;;;;;;7.45;5.88;;;18.20;39.60;;;;;;6247258;28;20046;-78
2021/04/02 11:02:54;;;;;;;9.00;7.13;;;17.90;42.10;;;;;;6248265;28;20563;-77
2021/04/02 11:05:56;;;;;;;10.43;6.82;;;17.70;40.10;;;;;;6247550;28;20132;-77
2021/04/02 11:08:57;;;;;;;7.47;6.70;;;17.40;41.60;;;;;;6250027;28;20463;-77
2021/04/02 11:12:00;;;;;;;11.23;7.97;;;17.80;41.20;;;;;;6249759;28;20079;-77
2021/04/02 11:15:01;;;;;;;10.27;7.75;;;18.20;40.20;;;;;;6249776;28;20056;-77
2021/04/02 11:18:03;;;;;;;10.23;6.85;;;18.30;39.50;;;;;;6252374;28;20084;-77
2021/04/02 11:21:04;;;;;;;10.93;7.07;;;18.50;39.40;;;;;;6254912;28;20589;-77
2021/04/02 11:24:06;;;;;;;11.75;7.40;;;18.80;39.00;;;;;;6254731;28;20224;-77
2021/04/02 11:27:09;;;;;;;8.15;6.75;;;18.70;38.00;;;;;;6255086;28;20132;-76
2021/04/02 11:30:13;;;;;;;10.05;6.15;;;18.50;38.70;;;;;;6255152;28;20147;-79
2021/04/02 11:33:14;;;;;;;8.90;6.20;;;18.70;37.60;;;;;;6254008;28;20132;-77
2021/04/02 11:36:16;;;;;;;8.75;7.70;;;18.60;37.40;;;;;;6254256;28;20128;-77
2021/04/02 11:39:17;;;;;;;10.55;7.13;;;18.80;37.40;;;;;;6252577;28;20144;-78
2021/04/02 11:42:19;;;;;;;7.45;6.53;;;18.80;37.70;;;;;;6254081;28;20085;-77
2021/04/02 11:45:22;;;;;;;7.68;6.07;;;18.80;37.90;;;;;;6255041;28;20054;-79
2021/04/02 11:48:23;;;;;;;7.05;6.35;;;19.10;37.70;;;;;;6254232;28;20096;-77
2021/04/02 11:51:24;;;;;;;9.10;7.75;;;19.30;37.40;;;;;;6256656;28;20080;-77
2021/04/02 11:54:26;;;;;;;8.93;7.95;;;19.30;36.50;;;;;;6252466;28;20053;-77
2021/04/02 11:57:29;;;;;;;6.57;5.88;;;19.10;37.20;;;;;;6251100;28;20084;-77
2021/04/02 12:00:30;;;;;;;8.32;6.78;;;19.00;37.10;;;;;;6250642;28;20053;-77
2021/04/02 12:03:32;;;;;;;8.38;7.40;;;19.20;37.80;;;;;;6251933;28;20053;-77
2021/04/02 12:06:33;;;;;;;11.02;8.68;;;19.20;36.40;;;;;;6254627;28;20504;-80
2021/04/02 12:09:34;;;;;;;9.85;7.50;;;18.80;37.40;;;;;;6250826;28;20515;-77
2021/04/02 12:12:36;;;;;;;8.10;7.40;;;18.80;37.70;;;;;;6250743;28;20132;-78
2021/04/02 12:15:38;;;;;;;8.70;6.85;;;18.90;37.20;;;;;;6250664;28;20048;-77
2021/04/02 12:18:40;;;;;;;7.63;6.70;;;19.00;37.20;;;;;;6250171;28;20435;-77
2021/04/02 12:21:41;;;;;;;8.00;7.20;;;19.20;36.90;;;;;;6250266;28;20068;-78
2021/04/02 12:24:43;;;;;;;6.90;6.20;;;19.30;36.40;;;;;;6250004;28;20049;-77
2021/04/02 12:27:45;;;;;;;8.75;6.45;;;19.10;37.10;;;;;;6250388;28;20072;-77
2021/04/02 12:30:46;;;;;;;9.38;8.20;;;19.10;36.90;;;;;;6250161;28;20571;-76
2021/04/02 12:33:48;;;;;;;9.20;8.30;;;19.10;37.00;;;;;;6252156;28;20463;-79
2021/04/02 12:36:49;;;;;;;8.60;7.80;;;19.10;36.80;;;;;;6252642;28;20073;-78
2021/04/02 12:39:50;;;;;;;7.05;6.43;;;19.20;36.80;;;;;;6250189;28;20199;-78
2021/04/02 12:42:53;;;;;;;8.95;6.38;;;19.30;36.80;;;;;;6251081;28;20085;-77
2021/04/02 12:45:54;;;;;;;6.38;5.78;;;19.20;36.80;;;;;;6251407;28;20132;-78
2021/04/02 12:48:56;;;;;;;6.70;6.10;;;19.00;35.80;;;;;;6250146;28;20095;-78
2021/04/02 12:51:57;;;;;;;11.55;10.55;;;18.80;36.60;;;;;;6250288;28;20046;-77
2021/04/02 12:54:59;;;;;;;7.03;6.32;;;18.90;37.40;;;;;;6251533;28;20084;-78
2021/04/02 12:58:01;;;;;;;7.18;6.47;;;18.90;36.40;;;;;;6251689;28;20042;-77
2021/04/02 13:01:03;;;;;;;8.77;6.47;;;19.00;36.50;;;;;;6251316;28;20049;-78
2021/04/02 13:04:05;;;;;;;8.10;5.80;;;19.00;36.50;;;;;;6254511;28;20107;-79
2021/04/02 13:07:08;;;;;;;8.88;6.18;;;19.00;35.70;;;;;;6254885;28;20052;-77
2021/04/02 13:10:11;;;;;;;7.90;7.15;;;19.10;36.10;;;;;;6251839;28;20511;-78
2021/04/02 13:13:13;;;;;;;16.80;14.27;;;19.10;37.10;;;;;;6253931;28;20073;-79
2021/04/02 13:16:15;;;;;;;7.97;7.20;;;19.30;36.50;;;;;;6253404;28;20084;-78
2021/04/02 13:19:16;;;;;;;9.02;5.25;;;19.30;36.00;;;;;;6252197;28;20136;-78
2021/04/02 13:22:17;;;;;;;8.55;5.60;;;19.30;36.80;;;;;;6251835;28;20081;-78
2021/04/02 13:25:19;;;;;;;5.82;5.22;;;19.10;35.40;;;;;;6260422;28;20499;-78
2021/04/02 13:28:21;;;;;;;5.85;5.30;;;19.10;36.60;;;;;;6252009;28;20050;-77
2021/04/02 13:31:23;;;;;;;6.70;6.00;;;19.20;36.10;;;;;;6249825;28;20053;-78
2021/04/02 13:34:24;;;;;;;8.07;5.78;;;19.00;36.30;;;;;;6249814;28;20511;-79
2021/04/02 13:37:26;;;;;;;8.60;6.15;;;18.90;36.40;;;;;;6248314;28;20591;-77
2021/04/02 13:40:28;;;;;;;6.97;5.13;;;18.90;37.40;;;;;;6247392;28;20053;-77
2021/04/02 13:43:30;;;;;;;8.18;6.25;;;18.90;36.80;;;;;;6248621;28;20049;-77
2021/04/02 13:46:31;;;;;;;7.53;6.15;;;19.00;36.80;;;;;;6248888;28;20546;-77
2021/04/02 13:49:33;;;;;;;5.85;5.18;;;19.00;37.50;;;;;;6248170;28;20051;-77
2021/04/02 13:52:34;;;;;;;6.68;5.32;;;18.90;37.70;;;;;;6248377;28;20056;-77
2021/04/02 13:55:36;;;;;;;6.57;5.78;;;19.00;36.50;;;;;;6247865;28;20573;-77
2021/04/02 13:58:38;;;;;;;7.20;6.57;;;19.10;35.80;;;;;;6247932;28;20081;-77
2021/04/02 14:01:39;;;;;;;6.53;5.90;;;18.90;36.50;;;;;;6247542;28;20041;-76
2021/04/02 14:04:40;;;;;;;6.28;5.20;;;18.80;37.50;;;;;;6248488;28;20069;-78
2021/04/02 14:07:42;;;;;;;6.53;5.57;;;18.90;37.70;;;;;;6247948;28;20547;-77
2021/04/02 14:10:44;;;;;;;5.97;5.47;;;18.80;37.40;;;;;;6247941;28;20053;-77
2021/04/02 14:13:46;;;;;;;6.45;5.85;;;18.70;37.70;;;;;;6260353;28;20130;-78
2021/04/02 14:16:47;;;;;;;6.10;5.47;;;18.70;37.90;;;;;;6272226;28;20529;-77
2021/04/02 14:19:48;;;;;;;9.45;6.00;;;18.60;39.00;;;;;;6272386;28;20203;-78
2021/04/02 14:22:50;;;;;;;8.13;5.93;;;18.60;38.90;;;;;;6272626;28;20131;-77
2021/04/02 14:25:52;;;;;;;8.23;5.82;;;18.50;39.40;;;;;;6272555;28;20076;-77
2021/04/02 14:28:54;;;;;;;10.15;5.63;;;18.50;39.30;;;;;;6273322;28;20055;-78
2021/04/02 14:31:55;;;;;;;9.23;6.35;;;18.30;39.40;;;;;;6272921;28;20045;-78
2021/04/02 14:34:57;;;;;;;6.55;5.43;;;18.20;39.40;;;;;;6273420;28;20052;-78
2021/04/02 14:37:59;;;;;;;9.63;6.28;;;18.30;39.50;;;;;;6272644;28;20149;-77
2021/04/02 14:41:01;;;;;;;6.32;5.72;;;18.30;40.50;;;;;;6271644;28;20131;-77
2021/04/02 14:44:03;;;;;;;7.45;6.75;;;17.90;39.80;;;;;;6271610;28;20055;-78
2021/04/02 14:47:06;;;;;;;6.85;4.88;;;17.60;40.40;;;;;;6271682;28;20670;-77
2021/04/02 14:50:09;;;;;;;6.50;5.75;;;17.60;40.60;;;;;;6272259;28;20095;-77
2021/04/02 14:53:11;;;;;;;7.15;6.43;;;17.70;40.80;;;;;;6272142;28;20103;-78
2021/04/02 14:56:12;;;;;;;6.88;6.22;;;17.80;40.30;;;;;;6251453;28;20171;-77
2021/04/02 14:59:14;;;;;;;6.25;5.70;;;17.80;40.40;;;;;;6246650;28;20510;-77
2021/04/02 15:02:15;;;;;;;7.47;6.30;;;17.80;40.00;;;;;;6247443;28;20152;-77
2021/04/02 15:05:18;;;;;;;7.82;7.00;;;17.80;40.50;;;;;;6246625;28;20419;-77
2021/04/02 15:08:20;;;;;;;8.77;6.45;;;17.70;40.10;;;;;;6247112;28;20052;-78
2021/04/02 15:11:21;;;;;;;10.68;5.22;;;17.40;40.10;;;;;;6246773;28;20123;-77
2021/04/02 15:14:23;;;;;;;8.02;6.93;;;17.10;40.40;;;;;;6249201;28;20104;-77
2021/04/02 15:17:25;;;;;;;6.80;6.13;;;16.80;40.90;;;;;;6247315;28;20140;-78
2021/04/02 15:20:26;;;;;;;8.20;6.22;;;16.60;41.50;;;;;;6246897;28;20053;-78
2021/04/02 15:23:28;;;;;;;5.90;5.30;;;16.30;41.30;;;;;;6253459;28;20104;-77
2021/04/02 15:26:29;;;;;;;6.93;5.97;;;16.10;41.70;;;;;;6254185;28;20053;-76
2021/04/02 15:29:31;;;;;;;5.88;5.28;;;15.80;42.00;;;;;;6263653;28;20128;-77
2021/04/02 15:32:33;;;;;;;6.20;5.60;;;15.60;42.70;;;;;;6262972;28;20135;-77
2021/04/02 15:35:34;;;;;;;6.93;6.05;;;15.40;42.90;;;;;;6263502;28;20068;-77
2021/04/02 15:38:35;;;;;;;6.53;5.82;;;15.20;43.10;;;;;;6256038;28;20144;-78
2021/04/02 15:41:36;;;;;;;13.25;7.25;;;15.00;43.40;;;;;;6266767;28;20068;-78
2021/04/02 15:44:39;;;;;;;9.80;6.70;;;14.70;44.30;;;;;;6256747;28;20072;-77
2021/04/02 15:47:40;;;;;;;8.95;5.50;;;14.70;45.00;;;;;;6254064;28;20081;-77
2021/04/02 15:50:42;;;;;;;6.75;5.80;;;14.60;44.60;;;;;;6261834;28;20077;-77